Time;durP1;ratioP1;P1;durP2;ratioP2;P2;SDS_P1;SDS_P2;PMS_P1;PMS_P2;Temp;Humidity;BMP_temperature;BMP_pressure;BME280_temperature;BME280_humidity;BME280_pressure;Samples;Min_cycle;Max_cycle;Signal;HPM_P1;HPM_P2
2023/04/11 00:01:52;;;;;;;2.30;1.60;;;14.20;73.70;;;;;;5019870;28;20033;-83
2023/04/11 00:04:19;;;;;;;2.15;1.45;;;14.30;73.70;;;;;;5019718;28;20088;-84
2023/04/11 00:06:46;;;;;;;3.30;1.75;;;14.20;73.70;;;;;;5020053;28;20129;-83
2023/04/11 00:09:12;;;;;;;2.65;1.83;;;14.20;73.80;;;;;;5019644;28;20474;-84
2023/04/11 00:11:37;;;;;;;2.88;1.88;;;14.20;73.80;;;;;;5019504;28;20120;-83
2023/04/11 00:14:04;;;;;;;2.22;1.55;;;14.20;73.80;;;;;;5019379;28;20493;-83
2023/04/11 00:16:32;;;;;;;3.05;1.80;;;14.10;73.80;;;;;;5035842;28;20030;-83
2023/04/11 00:18:59;;;;;;;4.50;2.00;;;14.10;73.90;;;;;;5036897;28;20061;-83
2023/04/11 00:21:24;;;;;;;2.55;1.83;;;14.10;73.90;;;;;;5036024;28;20021;-85
2023/04/11 00:23:54;;;;;;;4.60;2.03;;;14.10;73.90;;;;;;5019574;28;20040;-82
2023/04/11 00:26:20;;;;;;;5.00;2.47;;;14.10;73.90;;;;;;5035818;28;20462;-89
2023/04/11 00:28:47;;;;;;;3.80;1.85;;;14.00;73.90;;;;;;5035565;28;20017;-82
2023/04/11 00:31:13;;;;;;;4.50;2.13;;;14.00;73.90;;;;;;5036007;28;20032;-83
2023/04/11 00:33:38;;;;;;;5.50;2.28;;;14.00;73.90;;;;;;5019125;28;20068;-84
2023/04/11 00:36:05;;;;;;;4.03;1.90;;;14.00;73.90;;;;;;5019439;28;20029;-85
2023/04/11 00:38:31;;;;;;;3.15;1.67;;;14.00;73.90;;;;;;5036040;28;20033;-83
2023/04/11 00:40:57;;;;;;;4.40;2.00;;;13.90;73.90;;;;;;5034821;28;20028;-83
2023/04/11 00:43:22;;;;;;;4.47;2.20;;;13.90;73.90;;;;;;5003344;28;20365;-84
2023/04/11 00:45:50;;;;;;;4.97;2.10;;;13.90;73.90;;;;;;5003544;28;20026;-84
2023/04/11 00:48:16;;;;;;;4.50;2.38;;;13.90;74.00;;;;;;5034932;28;20091;-83
2023/04/11 00:50:42;;;;;;;4.40;2.00;;;13.90;74.00;;;;;;5002721;28;20075;-83
2023/04/11 00:53:11;;;;;;;5.80;2.25;;;13.90;74.00;;;;;;5036308;28;20061;-82
2023/04/11 00:55:36;;;;;;;3.53;1.92;;;13.80;74.00;;;;;;5035579;28;20045;-83
2023/04/11 00:58:03;;;;;;;7.05;2.42;;;13.80;74.00;;;;;;5018180;28;20474;-84
2023/04/11 01:00:34;;;;;;;4.85;2.08;;;13.80;74.00;;;;;;5017505;28;20030;-83
2023/04/11 01:03:01;;;;;;;4.07;2.10;;;13.80;74.00;;;;;;5035731;28;20104;-84
2023/04/11 01:05:28;;;;;;;5.45;2.15;;;13.80;74.00;;;;;;5035465;28;20501;-85
2023/04/11 01:07:54;;;;;;;4.03;2.22;;;13.70;74.00;;;;;;5023972;28;20378;-84
2023/04/11 01:10:22;;;;;;;5.88;2.17;;;13.70;74.00;;;;;;5022194;28;20037;-85
2023/04/11 01:12:48;;;;;;;4.47;2.33;;;13.70;74.10;;;;;;5003407;28;20033;-83
2023/04/11 01:15:14;;;;;;;4.70;2.03;;;13.70;74.00;;;;;;5036259;28;20492;-83
2023/04/11 01:17:40;;;;;;;5.20;2.13;;;13.70;74.00;;;;;;5018501;28;20033;-88
2023/04/11 01:20:08;;;;;;;5.13;2.13;;;13.70;74.00;;;;;;5001902;28;20037;-88
2023/04/11 01:22:36;;;;;;;4.63;2.28;;;13.70;74.10;;;;;;5018581;28;20493;-83
2023/04/11 01:25:03;;;;;;;6.88;2.60;;;13.60;74.00;;;;;;5018101;28;20128;-83
2023/04/11 01:27:29;;;;;;;4.28;1.95;;;13.60;74.00;;;;;;5018124;28;20029;-83
2023/04/11 01:29:55;;;;;;;4.65;1.85;;;13.60;74.10;;;;;;5034533;28;20025;-84
2023/04/11 01:32:22;;;;;;;5.95;2.40;;;13.60;74.10;;;;;;5002294;28;20036;-85
2023/04/11 01:34:50;;;;;;;4.82;2.03;;;13.60;74.10;;;;;;5017567;28;20049;-84
2023/04/11 01:37:16;;;;;;;5.47;2.15;;;13.50;74.10;;;;;;5017530;28;20030;-83
2023/04/11 01:39:42;;;;;;;5.85;2.42;;;13.50;74.10;;;;;;5017718;28;20488;-88
2023/04/11 01:42:09;;;;;;;4.80;2.13;;;13.50;74.10;;;;;;5017656;28;20555;-83
2023/04/11 01:44:35;;;;;;;4.40;1.85;;;13.50;74.20;;;;;;5018603;28;20454;-85
2023/04/11 01:47:02;;;;;;;4.10;1.85;;;13.50;74.20;;;;;;5018099;28;20033;-84
2023/04/11 01:49:28;;;;;;;3.72;1.90;;;13.40;74.10;;;;;;5017758;28;20017;-84
2023/04/11 01:51:54;;;;;;;5.50;2.20;;;13.40;74.20;;;;;;5017966;28;20030;-85
2023/04/11 01:54:20;;;;;;;5.95;2.08;;;13.40;74.20;;;;;;5017677;28;20041;-84
2023/04/11 01:56:46;;;;;;;5.95;2.17;;;13.40;74.20;;;;;;5034765;28;20355;-84
2023/04/11 01:59:12;;;;;;;4.05;1.98;;;13.40;74.20;;;;;;5034071;28;20033;-83
2023/04/11 02:01:38;;;;;;;4.15;2.03;;;13.40;74.30;;;;;;5034042;28;20034;-84
2023/04/11 02:04:03;;;;;;;3.55;2.10;;;13.30;74.20;;;;;;5034138;28;20052;-83
2023/04/11 02:06:30;;;;;;;5.00;2.40;;;13.30;74.20;;;;;;5034276;28;20102;-84
2023/04/11 02:08:56;;;;;;;5.95;2.08;;;13.30;74.20;;;;;;5033606;28;20035;-85
2023/04/11 02:11:22;;;;;;;6.20;2.13;;;13.30;74.20;;;;;;5033926;28;20108;-84
2023/04/11 02:13:48;;;;;;;5.22;2.03;;;13.30;74.30;;;;;;5017497;28;20034;-86
2023/04/11 02:16:14;;;;;;;4.68;2.40;;;13.20;74.20;;;;;;5017898;28;20034;-84
2023/04/11 02:18:44;;;;;;;6.03;2.38;;;13.20;74.20;;;;;;5017641;28;20025;-85
2023/04/11 02:21:10;;;;;;;6.55;2.30;;;13.20;74.20;;;;;;5033899;28;20036;-85
2023/04/11 02:23:36;;;;;;;4.70;2.03;;;13.20;74.30;;;;;;5000929;28;20037;-84
2023/04/11 02:26:03;;;;;;;4.55;1.92;;;13.20;74.30;;;;;;5017424;28;20041;-85
2023/04/11 02:28:29;;;;;;;5.10;2.30;;;13.10;74.20;;;;;;5017163;28;20474;-84
2023/04/11 02:30:55;;;;;;;4.22;2.08;;;13.10;74.30;;;;;;5016980;28;20034;-84
2023/04/11 02:33:21;;;;;;;5.55;2.10;;;13.10;74.30;;;;;;5036368;28;20393;-84
2023/04/11 02:35:47;;;;;;;5.75;2.13;;;13.10;74.20;;;;;;5020623;28;20049;-88
2023/04/11 02:38:13;;;;;;;7.90;2.17;;;13.10;74.30;;;;;;5054641;28;20029;-83
2023/04/11 02:40:39;;;;;;;6.50;1.90;;;13.10;74.20;;;;;;5054258;28;20087;-84
2023/04/11 02:43:06;;;;;;;4.75;1.90;;;13.00;74.20;;;;;;5005008;28;20047;-84
2023/04/11 02:45:31;;;;;;;5.85;2.28;;;13.00;74.20;;;;;;5020697;28;20033;-83
2023/04/11 02:47:59;;;;;;;3.90;1.88;;;13.00;74.20;;;;;;5003964;28;20032;-83
2023/04/11 02:50:25;;;;;;;3.90;1.77;;;13.00;74.20;;;;;;5004029;28;20465;-84
2023/04/11 02:52:52;;;;;;;2.97;1.60;;;13.00;74.30;;;;;;5004114;28;20037;-84
2023/04/11 02:55:23;;;;;;;2.40;1.63;;;12.90;74.20;;;;;;5005863;28;20037;-84
2023/04/11 02:57:49;;;;;;;3.42;1.70;;;12.90;74.30;;;;;;5020386;28;20473;-85
2023/04/11 03:00:20;;;;;;;3.10;1.70;;;12.90;74.30;;;;;;5036879;28;20029;-86
2023/04/11 03:02:59;;;;;;;5.10;1.90;;;12.90;74.30;;;;;;5007249;28;20087;-84
2023/04/11 03:05:26;;;;;;;3.42;1.55;;;12.90;74.30;;;;;;5020069;28;20061;-84
2023/04/11 03:07:52;;;;;;;5.00;1.90;;;12.90;74.30;;;;;;5020927;28;20446;-84
2023/04/11 03:10:19;;;;;;;3.70;1.67;;;12.90;74.30;;;;;;5003845;28;20099;-84
2023/04/11 03:12:45;;;;;;;3.55;1.77;;;12.80;74.40;;;;;;5004302;28;20409;-85
2023/04/11 03:15:14;;;;;;;4.40;2.10;;;12.80;74.30;;;;;;5004018;28;20548;-82
2023/04/11 03:17:40;;;;;;;4.03;1.63;;;12.80;74.40;;;;;;5003973;28;20116;-86
2023/04/11 03:20:10;;;;;;;5.20;1.90;;;12.80;74.40;;;;;;5004114;28;20029;-85
2023/04/11 03:22:37;;;;;;;3.72;2.00;;;12.80;74.50;;;;;;5004544;28;20076;-84
2023/04/11 03:25:05;;;;;;;3.70;1.77;;;12.80;74.50;;;;;;5023470;28;20063;-85
2023/04/11 03:27:31;;;;;;;3.90;1.65;;;12.70;74.50;;;;;;5040395;28;20429;-85
2023/04/11 03:30:01;;;;;;;3.95;1.70;;;12.70;74.50;;;;;;5008165;28;20033;-84
2023/04/11 03:32:37;;;;;;;2.60;1.30;;;12.70;74.60;;;;;;5010323;28;20381;-84
2023/04/11 03:35:02;;;;;;;4.35;1.90;;;12.60;74.50;;;;;;5007312;28;20060;-85
2023/04/11 03:37:29;;;;;;;3.75;1.80;;;12.60;74.60;;;;;;5023863;28;20033;-84
2023/04/11 03:39:55;;;;;;;3.67;1.85;;;12.60;74.60;;;;;;5023931;28;20036;-84
2023/04/11 03:42:20;;;;;;;3.53;1.95;;;12.60;74.60;;;;;;5026096;28;20087;-84
2023/04/11 03:44:50;;;;;;;3.45;1.73;;;12.60;74.60;;;;;;5043495;28;20036;-84
2023/04/11 03:47:16;;;;;;;5.80;1.83;;;12.60;74.60;;;;;;5009770;28;20037;-84
2023/04/11 03:49:43;;;;;;;3.90;1.60;;;12.50;74.60;;;;;;5024590;28;20037;-85
2023/04/11 03:52:11;;;;;;;3.38;1.90;;;12.50;74.60;;;;;;5007671;28;20079;-85
2023/04/11 03:54:37;;;;;;;3.60;1.70;;;12.50;74.70;;;;;;5024105;28;20469;-85
2023/04/11 03:57:06;;;;;;;4.65;1.80;;;12.50;74.80;;;;;;5008002;28;20061;-85
2023/04/11 03:59:33;;;;;;;2.70;1.45;;;12.40;74.70;;;;;;5022920;28;20116;-85
2023/04/11 04:02:06;;;;;;;3.15;1.50;;;12.40;74.70;;;;;;5024531;28;20044;-84
2023/04/11 04:04:35;;;;;;;3.22;1.52;;;12.40;74.70;;;;;;5023156;28;20112;-84
2023/04/11 04:07:21;;;;;;;3.28;1.52;;;12.40;74.70;;;;;;5011840;28;20035;-86
2023/04/11 04:09:49;;;;;;;3.03;1.80;;;12.40;74.80;;;;;;5008681;28;20044;-84
2023/04/11 04:12:18;;;;;;;2.92;1.80;;;12.40;74.70;;;;;;5007384;28;20036;-83
2023/04/11 04:15:07;;;;;;;3.63;1.50;;;12.40;74.80;;;;;;5026510;28;20037;-86
2023/04/11 04:17:34;;;;;;;3.70;1.63;;;12.30;74.70;;;;;;5039358;28;20055;-86
2023/04/11 04:20:03;;;;;;;3.35;1.55;;;12.30;74.80;;;;;;5006961;28;20029;-83
2023/04/11 04:22:29;;;;;;;3.53;1.60;;;12.30;74.80;;;;;;5022778;28;20029;-87
2023/04/11 04:25:00;;;;;;;3.15;1.80;;;12.30;74.80;;;;;;5007342;28;20025;-86
2023/04/11 04:27:28;;;;;;;3.17;1.58;;;12.30;74.80;;;;;;5022645;28;20473;-85
2023/04/11 04:29:55;;;;;;;1.95;1.45;;;12.20;74.80;;;;;;5039230;28;20043;-84
2023/04/11 04:32:27;;;;;;;3.30;1.70;;;12.20;74.80;;;;;;5007353;28;20025;-84
2023/04/11 04:34:58;;;;;;;3.50;1.55;;;12.20;74.80;;;;;;5006100;28;20103;-85
2023/04/11 04:37:38;;;;;;;3.13;1.70;;;12.20;74.80;;;;;;5039690;28;20098;-86
2023/04/11 04:40:22;;;;;;;2.60;1.50;;;12.20;74.70;;;;;;5042771;28;20161;-86
2023/04/11 04:43:00;;;;;;;2.88;1.35;;;12.20;74.70;;;;;;5024190;28;20064;-84
2023/04/11 04:45:47;;;;;;;2.67;1.33;;;12.10;74.80;;;;;;5012340;28;20033;-85
2023/04/11 04:48:19;;;;;;;1.88;1.15;;;12.10;74.80;;;;;;5039161;28;20060;-85
2023/04/11 04:50:44;;;;;;;2.58;1.42;;;12.10;74.80;;;;;;5005717;28;20061;-86
2023/04/11 04:53:10;;;;;;;2.38;1.50;;;12.10;74.80;;;;;;5005676;28;20428;-85
2023/04/11 04:55:42;;;;;;;2.17;1.25;;;12.10;74.80;;;;;;5023985;28;20377;-83
2023/04/11 04:58:09;;;;;;;2.45;1.42;;;12.10;74.80;;;;;;5021956;28;20053;-86
2023/04/11 05:00:35;;;;;;;3.53;1.40;;;12.10;74.80;;;;;;5022159;28;20021;-87
2023/04/11 05:03:04;;;;;;;2.17;1.40;;;12.10;74.80;;;;;;5038507;28;20037;-88
2023/04/11 05:05:31;;;;;;;2.65;1.40;;;12.10;74.80;;;;;;5005970;28;20078;-85
2023/04/11 05:07:59;;;;;;;2.22;1.20;;;12.10;74.80;;;;;;5022079;28;20033;-89
2023/04/11 05:10:24;;;;;;;2.60;1.50;;;12.10;74.80;;;;;;5038593;28;20079;-88
2023/04/11 05:12:52;;;;;;;2.05;1.30;;;12.10;74.80;;;;;;5005091;28;20037;-87
2023/04/11 05:15:20;;;;;;;1.52;1.27;;;12.00;74.80;;;;;;5006390;28;20051;-85
2023/04/11 05:17:45;;;;;;;2.55;1.40;;;12.00;74.80;;;;;;5005878;28;20106;-87
2023/04/11 05:20:14;;;;;;;2.33;1.23;;;12.00;74.80;;;;;;5006063;28;20029;-86
2023/04/11 05:22:43;;;;;;;2.00;1.40;;;12.00;74.80;;;;;;5007184;28;20037;-89
2023/04/11 05:25:10;;;;;;;2.28;1.35;;;12.00;74.80;;;;;;5005334;28;20033;-87
2023/04/11 05:27:38;;;;;;;2.67;1.40;;;12.00;74.80;;;;;;5006011;28;20049;-86
2023/04/11 05:30:05;;;;;;;3.60;1.63;;;12.00;74.90;;;;;;5021316;28;20063;-87
2023/04/11 05:32:35;;;;;;;1.88;1.20;;;12.00;74.90;;;;;;5022540;28;20028;-86
2023/04/11 05:35:01;;;;;;;2.95;1.20;;;12.00;74.80;;;;;;5004890;28;20397;-89
2023/04/11 05:37:36;;;;;;;3.03;1.30;;;11.90;74.80;;;;;;5008241;28;20131;-86
2023/04/11 05:40:02;;;;;;;3.20;1.70;;;11.90;74.80;;;;;;5021777;28;20086;-87
2023/04/11 05:42:27;;;;;;;3.80;1.30;;;11.90;74.80;;;;;;5004970;28;20369;-86
2023/04/11 05:44:53;;;;;;;2.63;1.50;;;11.90;74.80;;;;;;5005318;28;20037;-85
2023/04/11 05:47:20;;;;;;;2.53;1.20;;;11.90;74.80;;;;;;5005145;28;20025;-85
2023/04/11 05:49:47;;;;;;;1.67;1.25;;;11.90;74.80;;;;;;5004452;28;20039;-86
2023/04/11 05:52:14;;;;;;;1.83;1.30;;;11.80;74.80;;;;;;5037705;28;20124;-85
2023/04/11 05:54:40;;;;;;;2.22;1.33;;;11.80;74.80;;;;;;5004311;28;20127;-87
2023/04/11 05:57:06;;;;;;;2.10;1.25;;;11.80;74.80;;;;;;5004632;28;20040;-84
2023/04/11 05:59:33;;;;;;;2.75;1.30;;;11.80;74.80;;;;;;5021423;28;20540;-84
2023/04/11 06:01:59;;;;;;;2.17;1.30;;;11.80;74.80;;;;;;5021074;28;20063;-85
2023/04/11 06:04:25;;;;;;;1.80;1.20;;;11.80;74.80;;;;;;5037390;28;20041;-86
2023/04/11 06:06:52;;;;;;;1.75;1.10;;;11.80;74.80;;;;;;5037655;28;20040;-86
2023/04/11 06:09:18;;;;;;;2.50;1.20;;;11.80;74.80;;;;;;5037236;28;20036;-86
2023/04/11 06:11:44;;;;;;;2.35;1.25;;;11.80;74.80;;;;;;5037010;28;20025;-85
2023/04/11 06:14:10;;;;;;;3.17;1.40;;;11.80;74.80;;;;;;5005482;28;20488;-87
2023/04/11 06:16:37;;;;;;;1.77;1.20;;;11.70;74.80;;;;;;5023828;28;20029;-87
2023/04/11 06:19:04;;;;;;;1.60;1.17;;;11.70;74.80;;;;;;5027538;28;20017;-86
2023/04/11 06:21:33;;;;;;;2.03;1.15;;;11.70;74.80;;;;;;5028138;28;20029;-83
2023/04/11 06:24:04;;;;;;;2.92;1.30;;;11.70;74.80;;;;;;5008960;28;20469;-83
2023/04/11 06:26:30;;;;;;;2.40;1.27;;;11.70;74.80;;;;;;5005032;28;20466;-83
2023/04/11 06:28:56;;;;;;;2.42;1.10;;;11.70;74.70;;;;;;5005091;28;20033;-86
2023/04/11 06:31:21;;;;;;;2.38;1.35;;;11.60;74.70;;;;;;5037277;28;20040;-83
2023/04/11 06:33:47;;;;;;;1.33;1.23;;;11.60;74.80;;;;;;5037492;28;20064;-83
2023/04/11 06:36:13;;;;;;;3.65;1.45;;;11.60;74.80;;;;;;5004319;28;20064;-84
2023/04/11 06:38:39;;;;;;;3.65;1.40;;;11.60;74.80;;;;;;5020672;28;20103;-84
2023/04/11 06:41:05;;;;;;;2.70;1.15;;;11.60;74.80;;;;;;5003891;28;20029;-87
2023/04/11 06:43:31;;;;;;;2.00;1.20;;;11.60;74.80;;;;;;5004171;28;20056;-84
2023/04/11 06:45:57;;;;;;;2.08;1.17;;;11.60;74.80;;;;;;5004467;28;20033;-84
2023/04/11 06:48:23;;;;;;;1.90;1.13;;;11.50;74.80;;;;;;5004739;28;20480;-84
2023/04/11 06:50:49;;;;;;;1.77;1.10;;;11.60;74.80;;;;;;5020354;28;20033;-83
2023/04/11 06:53:15;;;;;;;2.47;1.40;;;11.60;74.80;;;;;;5037199;28;20052;-85
2023/04/11 06:55:40;;;;;;;2.10;1.30;;;11.50;74.70;;;;;;5037538;28;20473;-85
2023/04/11 06:58:06;;;;;;;2.58;1.40;;;11.50;74.70;;;;;;5019961;28;20033;-85
2023/04/11 07:00:32;;;;;;;3.08;1.30;;;11.50;74.80;;;;;;5003867;28;20071;-84
2023/04/11 07:02:58;;;;;;;1.92;1.33;;;11.50;74.80;;;;;;5020813;28;20469;-85
2023/04/11 07:05:25;;;;;;;3.13;1.40;;;11.50;74.70;;;;;;5019695;28;20503;-84
2023/04/11 07:07:52;;;;;;;2.50;1.60;;;11.50;74.70;;;;;;5004310;28;20032;-84
2023/04/11 07:10:18;;;;;;;1.85;1.20;;;11.50;74.70;;;;;;5054645;28;20029;-85
2023/04/11 07:12:44;;;;;;;2.25;1.30;;;11.50;74.70;;;;;;5003617;28;20039;-85
2023/04/11 07:15:10;;;;;;;1.73;1.15;;;11.50;74.70;;;;;;5021006;28;20041;-86
2023/04/11 07:17:35;;;;;;;2.35;1.27;;;11.50;74.80;;;;;;5020471;28;20477;-86
2023/04/11 07:20:05;;;;;;;1.35;1.17;;;11.50;74.70;;;;;;5019976;28;20037;-88
2023/04/11 07:22:31;;;;;;;2.75;1.48;;;11.50;74.70;;;;;;5037828;28;20037;-85
2023/04/11 07:24:56;;;;;;;6.45;1.60;;;11.50;74.80;;;;;;5003608;28;20350;-86
2023/04/11 07:27:23;;;;;;;2.50;1.35;;;11.50;74.70;;;;;;5019908;28;20040;-84
2023/04/11 07:29:49;;;;;;;1.77;1.00;;;11.50;74.70;;;;;;5037052;28;20076;-84
2023/04/11 07:32:15;;;;;;;1.92;1.30;;;11.50;74.70;;;;;;5003673;28;20088;-84
2023/04/11 07:34:41;;;;;;;2.70;1.40;;;11.50;74.70;;;;;;5036629;28;20060;-85
2023/04/11 07:37:06;;;;;;;1.88;1.30;;;11.50;74.70;;;;;;5020274;28;20033;-84
2023/04/11 07:39:33;;;;;;;1.45;1.20;;;11.50;74.70;;;;;;5003407;28;20021;-85
2023/04/11 07:41:59;;;;;;;2.45;1.45;;;11.50;74.70;;;;;;5020755;28;20036;-84
2023/04/11 07:44:25;;;;;;;2.67;1.23;;;11.50;74.70;;;;;;5005088;28;20025;-92
2023/04/11 07:46:50;;;;;;;3.47;1.35;;;11.60;74.70;;;;;;5036746;28;20037;-85
2023/04/11 07:49:16;;;;;;;1.75;1.35;;;11.60;74.70;;;;;;5003898;28;20098;-85
2023/04/11 07:51:42;;;;;;;1.63;1.27;;;11.50;74.60;;;;;;5020671;28;20033;-85
2023/04/11 07:54:08;;;;;;;3.17;1.42;;;11.50;74.60;;;;;;5003718;28;20075;-84
2023/04/11 07:56:34;;;;;;;2.45;1.30;;;11.50;74.70;;;;;;5019800;28;20025;-85
2023/04/11 07:59:01;;;;;;;2.28;1.33;;;11.60;74.70;;;;;;5035822;28;20494;-84
2023/04/11 08:01:27;;;;;;;2.75;1.55;;;11.60;74.70;;;;;;5035924;28;20025;-85
2023/04/11 08:03:53;;;;;;;3.78;1.42;;;11.60;74.70;;;;;;5019706;28;20055;-87
2023/04/11 08:06:19;;;;;;;5.03;1.98;;;11.60;74.70;;;;;;5053692;28;20025;-85
2023/04/11 08:08:46;;;;;;;2.22;1.42;;;11.60;74.60;;;;;;5035966;28;20029;-84
2023/04/11 08:11:12;;;;;;;2.45;1.30;;;11.60;74.60;;;;;;5022938;28;20025;-84
2023/04/11 08:13:38;;;;;;;1.92;1.30;;;11.70;74.70;;;;;;5023252;28;20063;-84
2023/04/11 08:16:09;;;;;;;1.85;1.30;;;11.70;74.60;;;;;;5057123;28;20029;-87
2023/04/11 08:18:36;;;;;;;3.13;1.52;;;11.70;74.60;;;;;;5023049;28;20474;-86
2023/04/11 08:21:02;;;;;;;2.92;1.40;;;11.70;74.50;;;;;;5007475;28;20040;-85
2023/04/11 08:23:28;;;;;;;2.00;1.50;;;11.70;74.40;;;;;;5057711;28;20044;-83
2023/04/11 08:25:55;;;;;;;3.22;1.80;;;11.80;74.40;;;;;;5022949;28;20148;-85
2023/04/11 08:28:22;;;;;;;3.08;1.83;;;11.80;74.40;;;;;;5022680;28;20045;-84
2023/04/11 08:30:51;;;;;;;3.28;1.35;;;11.80;74.40;;;;;;5039279;28;20035;-84
2023/04/11 08:33:18;;;;;;;1.92;1.30;;;11.80;74.40;;;;;;5023763;28;20036;-84
2023/04/11 08:35:44;;;;;;;2.92;1.30;;;11.80;74.40;;;;;;5039076;28;20053;-85
2023/04/11 08:38:10;;;;;;;2.88;1.48;;;11.80;74.30;;;;;;5039351;28;20052;-85
2023/04/11 08:40:36;;;;;;;2.20;1.42;;;11.90;74.40;;;;;;5006332;28;20029;-85
2023/04/11 08:43:08;;;;;;;3.17;1.40;;;11.90;74.30;;;;;;5006368;28;20128;-84
2023/04/11 08:45:34;;;;;;;3.67;1.58;;;11.90;74.30;;;;;;5039147;28;20063;-85
2023/04/11 08:48:00;;;;;;;2.15;1.30;;;11.90;74.30;;;;;;5022750;28;20476;-85
2023/04/11 08:50:26;;;;;;;3.67;1.40;;;11.90;74.20;;;;;;5023051;28;20060;-84
2023/04/11 08:52:52;;;;;;;2.90;1.40;;;11.90;74.20;;;;;;5024361;28;20460;-85
2023/04/11 08:55:18;;;;;;;1.48;1.30;;;12.00;74.20;;;;;;5041250;28;20054;-90
2023/04/11 08:57:43;;;;;;;2.95;1.50;;;12.00;74.10;;;;;;5026255;28;20029;-84
2023/04/11 09:00:12;;;;;;;2.33;1.40;;;12.00;74.10;;;;;;5026358;28;20377;-83
2023/04/11 09:03:00;;;;;;;3.28;1.40;;;12.10;74.10;;;;;;5038937;28;20021;-83
2023/04/11 09:05:28;;;;;;;1.73;1.40;;;12.10;74.00;;;;;;5022584;28;20116;-83
2023/04/11 09:07:54;;;;;;;1.23;1.10;;;12.10;73.90;;;;;;5039232;28;20114;-84
2023/04/11 09:10:21;;;;;;;3.15;1.60;;;12.10;73.80;;;;;;5022687;28;20175;-85
2023/04/11 09:12:47;;;;;;;1.80;1.30;;;12.20;73.80;;;;;;5006123;28;20029;-84
2023/04/11 09:15:21;;;;;;;3.03;1.65;;;12.30;73.80;;;;;;5005869;28;20036;-88
2023/04/11 09:17:48;;;;;;;1.75;1.30;;;12.30;73.70;;;;;;5056278;28;20021;-85
2023/04/11 09:20:30;;;;;;;3.85;1.67;;;12.30;73.60;;;;;;5038391;28;20052;-84
2023/04/11 09:23:00;;;;;;;3.50;1.90;;;12.40;73.60;;;;;;5021261;28;20037;-84
2023/04/11 09:25:26;;;;;;;1.60;1.15;;;12.40;73.50;;;;;;5022328;28;20032;-85
2023/04/11 09:28:09;;;;;;;2.17;1.48;;;12.50;73.50;;;;;;5038220;28;20017;-84
2023/04/11 09:30:35;;;;;;;2.45;1.50;;;12.50;73.40;;;;;;5022123;28;20033;-85
2023/04/11 09:33:21;;;;;;;3.65;1.45;;;12.60;73.30;;;;;;5005451;28;20087;-85
2023/04/11 09:35:52;;;;;;;2.90;1.35;;;12.60;73.30;;;;;;5016701;28;20084;-84
2023/04/11 09:38:32;;;;;;;1.90;1.40;;;12.60;73.10;;;;;;5037992;28;20040;-84
2023/04/11 09:41:03;;;;;;;2.58;1.40;;;12.70;73.10;;;;;;5038679;28;20049;-86
2023/04/11 09:43:50;;;;;;;2.78;1.42;;;12.70;73.10;;;;;;5055420;28;20087;-85
2023/04/11 09:46:22;;;;;;;2.08;1.30;;;12.80;73.20;;;;;;5022127;28;20036;-84
2023/04/11 09:48:49;;;;;;;3.08;1.20;;;12.90;73.10;;;;;;5038265;28;20029;-85
2023/04/11 09:51:16;;;;;;;2.25;1.10;;;12.90;73.10;;;;;;5021564;28;20029;-84
2023/04/11 09:53:43;;;;;;;3.38;1.63;;;12.90;73.10;;;;;;5021739;28;20091;-85
2023/04/11 09:56:09;;;;;;;2.40;1.30;;;13.00;73.10;;;;;;5040623;28;20043;-84
2023/04/11 09:58:37;;;;;;;3.30;1.58;;;13.00;73.10;;;;;;5021544;28;20531;-85
2023/04/11 10:01:06;;;;;;;4.22;1.42;;;13.10;73.10;;;;;;5021065;28;20347;-84
2023/04/11 10:03:33;;;;;;;2.47;1.30;;;13.10;73.10;;;;;;5037508;28;20037;-86
2023/04/11 10:06:04;;;;;;;2.53;1.40;;;13.20;73.10;;;;;;5004854;28;20029;-85
2023/04/11 10:08:32;;;;;;;2.17;1.20;;;13.20;73.70;;;;;;5037724;28;20102;-85
2023/04/11 10:10:59;;;;;;;3.25;1.45;;;13.30;73.10;;;;;;5021378;28;20460;-85
2023/04/11 10:13:34;;;;;;;3.28;1.67;;;13.30;73.00;;;;;;5037412;28;20036;-84
2023/04/11 10:16:07;;;;;;;2.25;1.40;;;13.40;73.00;;;;;;5055186;28;20527;-83
2023/04/11 10:18:35;;;;;;;2.40;1.40;;;13.40;72.90;;;;;;5037059;28;20029;-85
2023/04/11 10:21:01;;;;;;;2.15;1.58;;;13.40;72.80;;;;;;5020799;28;20035;-87
2023/04/11 10:23:27;;;;;;;2.25;1.50;;;13.50;72.80;;;;;;5036869;28;20028;-92
2023/04/11 10:25:58;;;;;;;3.53;1.42;;;13.50;72.70;;;;;;5004244;28;20047;-85
2023/04/11 10:28:33;;;;;;;2.00;1.30;;;13.60;72.80;;;;;;5037124;28;20151;-84
2023/04/11 10:31:00;;;;;;;2.13;1.42;;;13.60;72.60;;;;;;5037021;28;20032;-85
2023/04/11 10:33:26;;;;;;;2.25;1.20;;;13.70;72.60;;;;;;5019502;28;20033;-84
2023/04/11 10:36:04;;;;;;;2.40;1.13;;;13.70;72.50;;;;;;5037334;28;20045;-84
2023/04/11 10:38:35;;;;;;;3.33;1.50;;;13.80;72.60;;;;;;5036448;28;20039;-87
2023/04/11 10:41:16;;;;;;;2.55;1.30;;;13.80;72.50;;;;;;5020726;28;20029;-87
2023/04/11 10:43:42;;;;;;;2.30;1.27;;;13.90;72.50;;;;;;5020678;28;20385;-83
2023/04/11 10:46:24;;;;;;;2.28;1.52;;;13.90;72.40;;;;;;5020099;28;20059;-84
2023/04/11 10:49:01;;;;;;;2.03;1.02;;;14.00;72.40;;;;;;5036595;28;20041;-84
2023/04/11 10:51:30;;;;;;;1.20;1.10;;;14.10;72.40;;;;;;5020237;28;20428;-87
2023/04/11 10:54:00;;;;;;;2.63;1.30;;;14.10;72.20;;;;;;5019895;28;20033;-84
2023/04/11 10:56:49;;;;;;;3.45;1.50;;;14.20;72.20;;;;;;5037089;28;20044;-82
2023/04/11 10:59:30;;;;;;;2.05;1.02;;;14.30;72.20;;;;;;5020164;28;20031;-84
2023/04/11 11:02:00;;;;;;;1.45;1.10;;;14.30;72.00;;;;;;5036569;28;20078;-85
2023/04/11 11:04:34;;;;;;;2.88;1.30;;;14.40;71.90;;;;;;5036920;28;20027;-84
2023/04/11 11:07:02;;;;;;;1.77;1.17;;;14.40;71.80;;;;;;5020386;28;20071;-89
2023/04/11 11:09:28;;;;;;;2.25;1.30;;;14.50;71.80;;;;;;5021034;28;20024;-85
2023/04/11 11:12:11;;;;;;;1.75;1.10;;;14.50;71.60;;;;;;5019973;28;20033;-85
2023/04/11 11:14:40;;;;;;;2.00;1.38;;;14.70;71.70;;;;;;5019858;28;20125;-85
2023/04/11 11:17:06;;;;;;;1.88;1.00;;;14.70;71.50;;;;;;5037260;28;20031;-87
2023/04/11 11:19:33;;;;;;;1.95;1.30;;;14.80;71.50;;;;;;5020233;28;20033;-84
2023/04/11 11:22:02;;;;;;;2.17;1.42;;;14.90;71.50;;;;;;5020663;28;20021;-88
2023/04/11 11:24:30;;;;;;;1.88;1.52;;;14.90;71.40;;;;;;5022091;28;20029;-86
2023/04/11 11:26:57;;;;;;;1.55;1.00;;;15.00;71.30;;;;;;5038519;28;20032;-84
2023/04/11 11:29:31;;;;;;;2.10;1.20;;;15.10;71.30;;;;;;5039520;28;20017;-85
2023/04/11 11:32:02;;;;;;;1.25;1.10;;;15.10;71.30;;;;;;5022758;28;20096;-83
2023/04/11 11:34:29;;;;;;;3.40;1.30;;;15.20;71.20;;;;;;5039249;28;20047;-83
2023/04/11 11:36:56;;;;;;;1.45;1.15;;;15.20;71.20;;;;;;5037103;28;20027;-84
2023/04/11 11:39:22;;;;;;;1.80;1.00;;;15.30;71.20;;;;;;5003854;28;20040;-84
2023/04/11 11:41:48;;;;;;;2.00;1.15;;;15.40;71.20;;;;;;5036423;28;20025;-84
2023/04/11 11:44:25;;;;;;;2.47;1.52;;;15.40;71.20;;;;;;5020612;28;20073;-86
2023/04/11 11:47:08;;;;;;;2.55;1.13;;;15.50;71.30;;;;;;5023699;28;20381;-84
2023/04/11 11:49:49;;;;;;;1.85;1.05;;;15.50;71.30;;;;;;5024135;28;20025;-84
2023/04/11 11:52:32;;;;;;;1.38;1.15;;;15.60;71.30;;;;;;5039581;28;20119;-84
2023/04/11 11:54:58;;;;;;;2.55;1.42;;;15.60;71.30;;;;;;5006968;28;20049;-84
2023/04/11 11:57:23;;;;;;;1.02;0.85;;;15.70;71.30;;;;;;5007860;28;20029;-82
2023/04/11 11:59:56;;;;;;;2.85;1.20;;;15.70;71.30;;;;;;5023120;28;20052;-84
2023/04/11 12:02:24;;;;;;;3.15;1.20;;;15.70;71.40;;;;;;5057371;28;20032;-83
2023/04/11 12:04:58;;;;;;;1.95;1.08;;;15.70;71.30;;;;;;5039553;28;20029;-86
2023/04/11 12:07:24;;;;;;;1.95;1.00;;;15.80;71.40;;;;;;5057830;28;20064;-82
2023/04/11 12:10:14;;;;;;;3.00;1.10;;;15.80;71.30;;;;;;5006912;28;20106;-83
2023/04/11 12:12:42;;;;;;;1.88;1.00;;;15.80;71.50;;;;;;5043941;28;20045;-83
2023/04/11 12:15:11;;;;;;;2.55;1.17;;;15.80;71.40;;;;;;5024316;28;20462;-85
2023/04/11 12:17:37;;;;;;;2.22;1.13;;;15.90;71.50;;;;;;5039198;28;20025;-84
2023/04/11 12:20:07;;;;;;;2.08;1.02;;;15.90;71.60;;;;;;5039241;28;20083;-84
2023/04/11 12:22:33;;;;;;;1.58;1.23;;;15.90;71.60;;;;;;5022842;28;20039;-88
2023/04/11 12:25:11;;;;;;;2.50;1.58;;;15.90;71.70;;;;;;5039557;28;20074;-87
2023/04/11 12:27:38;;;;;;;1.63;1.10;;;15.90;71.80;;;;;;5038896;28;20029;-84
2023/04/11 12:30:05;;;;;;;1.85;1.10;;;16.00;71.90;;;;;;5039005;28;20082;-84
2023/04/11 12:32:34;;;;;;;3.08;1.10;;;16.00;71.90;;;;;;5022909;28;20017;-83
2023/04/11 12:35:01;;;;;;;2.72;1.15;;;16.00;71.90;;;;;;5056825;28;20492;-84
2023/04/11 12:37:27;;;;;;;2.03;1.20;;;16.00;72.00;;;;;;5038764;28;20029;-86
2023/04/11 12:39:53;;;;;;;1.30;1.00;;;16.10;72.00;;;;;;5056838;28;20134;-83
2023/04/11 12:42:19;;;;;;;2.35;1.10;;;16.00;72.00;;;;;;5022525;28;20024;-87
2023/04/11 12:44:46;;;;;;;2.42;1.20;;;16.10;72.00;;;;;;5039707;28;20434;-84
2023/04/11 12:47:12;;;;;;;1.75;1.10;;;16.10;72.00;;;;;;5039059;28;20021;-83
2023/04/11 12:49:38;;;;;;;1.35;1.00;;;16.10;72.00;;;;;;5006652;28;20368;-90
2023/04/11 12:52:05;;;;;;;2.33;1.30;;;16.10;71.90;;;;;;5038656;28;20477;-83
2023/04/11 12:54:31;;;;;;;1.35;1.00;;;16.20;71.90;;;;;;5022207;28;20048;-83